Time;durP1;ratioP1;P1;durP2;ratioP2;P2;SDS_P1;SDS_P2;PMS_P1;PMS_P2;Temp;Humidity;BMP_temperature;BMP_pressure;BME280_temperature;BME280_humidity;BME280_pressure;Samples;Min_cycle;Max_cycle;Signal;HPM_P1;HPM_P2
2022/03/28 00:00:20;;;;;;;7.80;3.67;;;7.80;99.90;;;;;;5069465;27;35344;-57
2022/03/28 00:02:47;;;;;;;10.30;3.92;;;7.80;99.90;;;;;;5068384;28;39205;-56
2022/03/28 00:05:15;;;;;;;8.30;4.13;;;7.80;99.90;;;;;;5068675;28;36302;-57
2022/03/28 00:07:42;;;;;;;12.50;4.30;;;7.80;99.90;;;;;;5068728;27;37535;-57
2022/03/28 00:10:11;;;;;;;7.00;3.83;;;7.80;99.90;;;;;;5069617;27;36559;-57
2022/03/28 00:12:39;;;;;;;10.13;3.80;;;7.80;99.90;;;;;;5068655;28;37427;-57
2022/03/28 00:15:08;;;;;;;11.75;3.72;;;7.80;99.90;;;;;;5070160;27;37864;-57
2022/03/28 00:17:37;;;;;;;10.40;3.85;;;7.80;99.90;;;;;;5069504;28;37516;-57
2022/03/28 00:20:05;;;;;;;7.45;3.80;;;7.80;99.90;;;;;;5068584;27;36023;-57
2022/03/28 00:22:33;;;;;;;10.35;3.90;;;7.80;99.90;;;;;;5069470;27;37547;-57
2022/03/28 00:25:00;;;;;;;11.15;3.95;;;7.90;99.90;;;;;;5069506;28;37939;-57
2022/03/28 00:27:27;;;;;;;7.32;3.80;;;7.90;99.90;;;;;;5069015;27;37556;-57
2022/03/28 00:29:55;;;;;;;9.65;4.38;;;7.90;99.90;;;;;;5068814;28;36458;-57
2022/03/28 00:32:22;;;;;;;7.55;4.43;;;7.90;99.90;;;;;;5068340;27;39122;-57
2022/03/28 00:34:51;;;;;;;8.73;4.38;;;7.80;99.90;;;;;;5069239;27;37908;-57
2022/03/28 00:37:18;;;;;;;9.02;3.95;;;7.90;99.90;;;;;;5069843;27;37785;-57
2022/03/28 00:39:46;;;;;;;8.32;3.72;;;7.90;99.90;;;;;;5070752;27;37133;-56
2022/03/28 00:42:13;;;;;;;14.25;4.18;;;7.80;99.90;;;;;;5070878;28;37280;-57
2022/03/28 00:44:40;;;;;;;8.32;4.18;;;7.80;99.90;;;;;;5070609;27;38243;-58
2022/03/28 00:47:08;;;;;;;11.13;5.80;;;7.70;99.90;;;;;;5070737;27;37292;-56
2022/03/28 00:49:35;;;;;;;8.13;4.03;;;7.70;99.90;;;;;;5072481;27;35503;-56
2022/03/28 00:52:05;;;;;;;8.90;4.07;;;7.70;99.90;;;;;;5071957;27;37946;-57
2022/03/28 00:54:32;;;;;;;8.98;4.07;;;7.70;99.90;;;;;;5072528;27;37748;-57
2022/03/28 00:57:00;;;;;;;8.98;3.60;;;7.70;99.90;;;;;;5072147;27;37390;-56
2022/03/28 00:59:31;;;;;;;8.98;4.50;;;7.70;99.90;;;;;;5070308;27;36539;-56
2022/03/28 01:01:58;;;;;;;8.45;3.65;;;7.70;99.90;;;;;;5072318;27;39824;-56
2022/03/28 01:04:26;;;;;;;8.30;3.60;;;7.70;99.90;;;;;;5072468;28;37485;-57
2022/03/28 01:06:54;;;;;;;6.97;3.83;;;7.70;99.90;;;;;;5072336;27;37986;-57
2022/03/28 01:09:22;;;;;;;13.98;4.38;;;7.70;99.90;;;;;;5072469;27;36584;-56
2022/03/28 01:11:52;;;;;;;7.30;3.80;;;7.70;99.90;;;;;;5070704;28;39612;-57
2022/03/28 01:14:20;;;;;;;8.35;4.20;;;7.70;99.90;;;;;;5070437;27;36997;-56
2022/03/28 01:19:33;;;;;;;7.88;3.80;;;7.70;99.90;;;;;;5072001;28;36380;-57
2022/03/28 01:22:01;;;;;;;7.05;3.45;;;7.60;99.90;;;;;;5072025;28;37822;-57
2022/03/28 01:24:29;;;;;;;6.72;3.60;;;7.60;99.90;;;;;;5072384;27;37737;-56
2022/03/28 01:26:57;;;;;;;6.03;3.55;;;7.60;99.90;;;;;;5072048;27;37582;-57
2022/03/28 01:29:25;;;;;;;8.52;3.92;;;7.60;99.90;;;;;;5072117;27;36751;-56
2022/03/28 01:31:53;;;;;;;8.95;4.05;;;7.60;99.90;;;;;;5072593;27;38707;-56
2022/03/28 01:34:21;;;;;;;8.02;4.65;;;7.60;99.90;;;;;;5072372;27;39002;-57
2022/03/28 01:36:49;;;;;;;12.35;5.13;;;7.60;99.90;;;;;;5072364;28;36831;-56
2022/03/28 01:39:19;;;;;;;9.57;4.78;;;7.60;99.90;;;;;;5072691;27;36359;-56
2022/03/28 01:41:47;;;;;;;8.60;5.28;;;7.60;99.90;;;;;;5072372;27;36248;-57
2022/03/28 01:44:14;;;;;;;10.68;4.07;;;7.60;99.90;;;;;;5070289;28;36405;-57
2022/03/28 01:46:44;;;;;;;10.02;5.25;;;7.60;99.90;;;;;;5071618;28;41830;-57
2022/03/28 01:49:12;;;;;;;9.68;4.95;;;7.70;99.90;;;;;;5072052;27;37993;-56
2022/03/28 01:51:39;;;;;;;8.65;4.80;;;7.70;99.90;;;;;;5072201;28;36902;-57
2022/03/28 01:54:07;;;;;;;12.05;4.70;;;7.70;99.90;;;;;;5072387;27;38012;-56
2022/03/28 01:56:36;;;;;;;13.82;5.20;;;7.70;99.90;;;;;;5072218;27;36123;-57
2022/03/28 01:59:04;;;;;;;8.25;4.53;;;7.70;99.90;;;;;;5072162;27;37587;-56
2022/03/28 02:01:32;;;;;;;10.25;4.72;;;7.80;99.90;;;;;;5071827;27;39266;-56
2022/03/28 02:04:00;;;;;;;10.40;4.82;;;7.70;99.90;;;;;;5068836;28;37644;-57
2022/03/28 02:06:28;;;;;;;7.47;4.90;;;7.70;99.90;;;;;;5068971;28;36139;-56
2022/03/28 02:08:56;;;;;;;7.35;5.00;;;7.70;99.90;;;;;;5070675;27;36549;-57
2022/03/28 02:11:23;;;;;;;9.68;5.30;;;7.70;99.90;;;;;;5070369;27;37532;-56
2022/03/28 02:13:52;;;;;;;7.65;4.93;;;7.70;99.90;;;;;;5069444;27;37571;-56
2022/03/28 02:16:19;;;;;;;9.88;4.82;;;7.60;99.90;;;;;;5069988;28;38195;-57
2022/03/28 02:18:46;;;;;;;10.75;5.35;;;7.60;99.90;;;;;;5071568;27;36514;-56
2022/03/28 02:21:14;;;;;;;9.63;5.53;;;7.60;99.90;;;;;;5071836;27;37354;-57
2022/03/28 02:23:41;;;;;;;7.93;4.70;;;7.60;99.90;;;;;;5071417;27;37816;-56
2022/03/28 02:26:08;;;;;;;6.68;4.25;;;7.60;99.90;;;;;;5071224;27;37551;-56
2022/03/28 02:28:36;;;;;;;8.13;5.10;;;7.60;99.90;;;;;;5072057;28;37650;-57
2022/03/28 02:31:05;;;;;;;8.95;5.38;;;7.60;99.90;;;;;;5072293;28;36202;-57
2022/03/28 02:33:33;;;;;;;9.80;5.90;;;7.60;99.90;;;;;;5070799;27;36492;-57
2022/03/28 02:36:00;;;;;;;11.75;6.38;;;7.60;99.90;;;;;;5071531;28;37558;-57
2022/03/28 02:38:27;;;;;;;8.43;5.22;;;7.60;99.90;;;;;;5071267;27;36448;-57
2022/03/28 02:40:55;;;;;;;11.20;5.85;;;7.60;99.90;;;;;;5071097;27;37420;-56
2022/03/28 02:43:23;;;;;;;8.70;5.30;;;7.60;99.90;;;;;;5069715;27;37773;-57
2022/03/28 02:45:50;;;;;;;9.43;5.45;;;7.60;99.90;;;;;;5070969;27;37423;-56
2022/03/28 02:48:19;;;;;;;9.65;5.93;;;7.60;99.90;;;;;;5069877;27;36478;-57
2022/03/28 02:50:47;;;;;;;10.50;5.78;;;7.60;99.90;;;;;;5071245;28;39195;-56
2022/03/28 02:53:14;;;;;;;13.35;6.47;;;7.60;99.90;;;;;;5069375;27;37831;-56
2022/03/28 02:55:41;;;;;;;12.52;6.10;;;7.60;99.90;;;;;;5071286;27;38234;-57
2022/03/28 02:58:09;;;;;;;10.80;5.95;;;7.30;99.90;;;;;;5071066;27;36429;-57
2022/03/28 03:00:36;;;;;;;12.60;5.53;;;7.60;99.90;;;;;;5070186;27;39578;-57
2022/03/28 03:03:03;;;;;;;9.10;6.35;;;7.60;99.90;;;;;;5069007;27;37739;-56
2022/03/28 03:05:32;;;;;;;11.95;5.32;;;7.50;99.90;;;;;;5069908;28;37341;-56
2022/03/28 03:07:59;;;;;;;9.13;5.63;;;7.60;99.90;;;;;;5069370;27;37864;-56
2022/03/28 03:10:27;;;;;;;11.82;6.15;;;7.50;99.90;;;;;;5071121;27;36288;-57
2022/03/28 03:12:54;;;;;;;10.35;5.53;;;7.50;99.90;;;;;;5069759;27;38151;-57
2022/03/28 03:15:21;;;;;;;11.90;5.88;;;7.50;99.90;;;;;;5071083;28;38775;-57
2022/03/28 03:17:49;;;;;;;11.68;5.95;;;7.50;99.90;;;;;;5069942;27;36383;-56
2022/03/28 03:20:17;;;;;;;10.88;6.60;;;7.50;99.90;;;;;;5069519;27;41417;-57
2022/03/28 03:22:45;;;;;;;11.20;6.18;;;7.50;99.90;;;;;;5069704;27;37983;-57
2022/03/28 03:25:13;;;;;;;12.48;6.03;;;7.50;99.90;;;;;;5071390;27;37864;-57
2022/03/28 03:27:40;;;;;;;9.70;5.72;;;7.50;99.90;;;;;;5071401;27;37105;-57
2022/03/28 03:30:09;;;;;;;12.52;7.53;;;7.50;99.90;;;;;;5070367;27;37523;-56
2022/03/28 03:32:37;;;;;;;11.32;6.63;;;7.50;99.90;;;;;;5069769;28;38999;-56
2022/03/28 03:35:06;;;;;;;13.73;6.82;;;7.50;99.90;;;;;;5069718;28;37587;-56
2022/03/28 03:37:34;;;;;;;13.68;6.60;;;7.50;99.90;;;;;;5068154;27;38445;-57
2022/03/28 03:40:03;;;;;;;8.27;5.82;;;7.50;99.90;;;;;;5068904;27;37602;-56
2022/03/28 03:42:31;;;;;;;13.80;6.50;;;7.50;99.90;;;;;;5067992;27;38590;-56
2022/03/28 03:44:58;;;;;;;12.10;6.85;;;7.50;99.90;;;;;;5069835;28;37675;-56
2022/03/28 03:47:26;;;;;;;14.48;6.50;;;7.50;99.90;;;;;;5069609;28;37028;-56
2022/03/28 03:49:53;;;;;;;13.45;6.70;;;7.50;99.90;;;;;;5070053;28;37378;-56
2022/03/28 03:52:21;;;;;;;11.63;6.60;;;7.50;99.90;;;;;;5070227;27;38162;-56
2022/03/28 03:54:49;;;;;;;10.80;6.72;;;7.40;99.90;;;;;;5070207;27;37387;-56
2022/03/28 03:57:17;;;;;;;12.07;7.32;;;7.40;99.90;;;;;;5069594;28;37104;-56
2022/03/28 03:59:45;;;;;;;10.57;6.75;;;7.30;99.90;;;;;;5070694;27;39436;-56
2022/03/28 04:02:12;;;;;;;11.82;7.35;;;7.30;99.90;;;;;;5070637;27;37273;-57
2022/03/28 04:04:39;;;;;;;13.13;7.28;;;7.30;99.90;;;;;;5069048;28;40106;-56
2022/03/28 04:07:07;;;;;;;11.55;7.47;;;7.40;99.90;;;;;;5070048;27;35140;-56
2022/03/28 04:09:34;;;;;;;13.63;7.00;;;7.40;99.90;;;;;;5069340;27;37641;-56
2022/03/28 04:12:01;;;;;;;12.45;6.97;;;7.40;99.90;;;;;;5070609;28;37598;-59
2022/03/28 04:14:30;;;;;;;17.80;7.82;;;7.30;99.90;;;;;;5072043;27;37182;-57
2022/03/28 04:16:57;;;;;;;12.10;7.82;;;7.30;99.90;;;;;;5073836;28;37372;-57
2022/03/28 04:19:25;;;;;;;10.70;7.70;;;7.40;99.90;;;;;;5072646;27;37330;-57
2022/03/28 04:21:52;;;;;;;11.60;7.72;;;7.40;99.90;;;;;;5073627;28;37631;-57
2022/03/28 04:24:21;;;;;;;13.20;7.53;;;7.30;99.90;;;;;;5072996;27;37641;-57
2022/03/28 04:26:48;;;;;;;10.95;6.22;;;7.30;99.90;;;;;;5072614;27;37846;-57
2022/03/28 04:29:16;;;;;;;15.43;6.95;;;7.30;99.90;;;;;;5072104;27;38573;-57
2022/03/28 04:31:45;;;;;;;11.98;6.18;;;7.30;99.90;;;;;;5073076;28;38227;-57
2022/03/28 04:34:12;;;;;;;9.43;5.80;;;7.30;99.90;;;;;;5072288;28;37488;-57
2022/03/28 04:36:39;;;;;;;8.18;5.00;;;7.10;99.90;;;;;;5073166;27;37903;-57
2022/03/28 04:39:07;;;;;;;9.75;5.53;;;7.10;99.90;;;;;;5072167;27;37478;-57
2022/03/28 04:41:34;;;;;;;6.97;4.15;;;7.10;99.90;;;;;;5072640;27;37629;-57
2022/03/28 04:44:01;;;;;;;7.18;3.90;;;7.10;99.90;;;;;;5070738;28;37321;-57
2022/03/28 04:46:29;;;;;;;8.07;3.85;;;7.00;99.90;;;;;;5071638;28;37178;-57
2022/03/28 04:48:58;;;;;;;5.72;2.78;;;7.00;99.90;;;;;;5073251;27;37420;-58
2022/03/28 04:51:25;;;;;;;4.38;2.03;;;7.00;99.90;;;;;;5073178;27;37643;-57
2022/03/28 04:53:52;;;;;;;5.10;2.55;;;6.90;99.90;;;;;;5072646;28;36908;-57
2022/03/28 04:56:19;;;;;;;5.22;2.47;;;7.00;99.90;;;;;;5072247;27;38783;-57
2022/03/28 04:58:47;;;;;;;5.32;2.50;;;6.90;99.90;;;;;;5072749;27;36124;-57
2022/03/28 05:01:14;;;;;;;5.22;2.10;;;6.90;99.90;;;;;;5070480;27;40125;-57
2022/03/28 05:03:41;;;;;;;4.20;1.60;;;7.10;99.90;;;;;;5069958;28;38734;-57
2022/03/28 05:06:10;;;;;;;5.32;1.90;;;7.00;99.90;;;;;;5071014;28;37054;-57
2022/03/28 05:08:38;;;;;;;4.15;1.88;;;6.90;99.90;;;;;;5070171;27;37528;-57
2022/03/28 05:11:05;;;;;;;3.20;1.42;;;6.90;99.90;;;;;;5071005;27;37357;-56
2022/03/28 05:13:33;;;;;;;4.32;1.90;;;6.90;99.90;;;;;;5071879;27;37452;-57
2022/03/28 05:16:00;;;;;;;4.18;1.55;;;6.90;99.90;;;;;;5072561;27;35391;-57
2022/03/28 05:18:27;;;;;;;3.85;1.50;;;6.90;99.90;;;;;;5072038;27;37514;-57
2022/03/28 05:20:55;;;;;;;4.72;2.00;;;6.90;99.90;;;;;;5071122;27;37937;-57
2022/03/28 05:23:23;;;;;;;3.42;1.40;;;7.00;99.90;;;;;;5071217;27;38708;-57
2022/03/28 05:25:51;;;;;;;3.22;1.15;;;6.90;99.90;;;;;;5071755;27;35084;-57
2022/03/28 05:28:18;;;;;;;3.22;1.35;;;6.90;99.90;;;;;;5071915;27;39149;-57
2022/03/28 05:30:45;;;;;;;3.67;1.75;;;6.90;99.90;;;;;;5070550;27;36551;-57
2022/03/28 05:33:12;;;;;;;3.97;1.80;;;6.90;99.90;;;;;;5071473;27;37335;-57
2022/03/28 05:35:43;;;;;;;3.88;1.55;;;6.90;99.90;;;;;;5072470;28;37438;-57
2022/03/28 05:38:10;;;;;;;3.42;1.67;;;6.90;99.90;;;;;;5070562;27;37294;-57
2022/03/28 05:40:39;;;;;;;4.88;2.10;;;6.90;99.90;;;;;;5070306;27;37742;-57
2022/03/28 05:43:07;;;;;;;5.55;2.70;;;6.90;99.90;;;;;;5071664;27;37620;-57
2022/03/28 05:45:36;;;;;;;7.80;4.60;;;7.00;99.90;;;;;;5072046;27;36949;-57
2022/03/28 05:48:04;;;;;;;7.53;4.05;;;7.00;99.90;;;;;;5070912;27;37517;-57
2022/03/28 05:50:31;;;;;;;9.73;4.60;;;7.00;99.90;;;;;;5071560;27;37935;-56
2022/03/28 05:52:59;;;;;;;8.88;4.45;;;7.00;99.90;;;;;;5071538;27;38535;-57
2022/03/28 05:55:26;;;;;;;12.98;5.05;;;6.90;99.90;;;;;;5071330;27;36681;-56
2022/03/28 05:57:55;;;;;;;8.95;5.00;;;6.90;99.90;;;;;;5071151;28;38375;-57
2022/03/28 06:00:22;;;;;;;12.85;5.80;;;6.90;99.90;;;;;;5070868;27;38689;-57
2022/03/28 06:02:50;;;;;;;9.57;5.85;;;6.90;99.90;;;;;;5070300;28;40085;-56
2022/03/28 06:05:17;;;;;;;12.90;6.50;;;6.90;99.90;;;;;;5069503;27;36386;-56
2022/03/28 06:07:44;;;;;;;10.00;7.40;;;7.00;99.90;;;;;;5071060;28;37507;-57
2022/03/28 06:10:12;;;;;;;9.13;6.10;;;7.00;99.90;;;;;;5071001;28;37646;-57
2022/03/28 06:12:39;;;;;;;7.97;6.05;;;7.00;99.90;;;;;;5071972;27;37657;-56
2022/03/28 06:15:09;;;;;;;7.93;5.10;;;7.00;99.90;;;;;;5070966;27;36662;-57
2022/03/28 06:17:36;;;;;;;8.15;4.85;;;6.90;99.90;;;;;;5071680;27;37678;-57
2022/03/28 06:20:05;;;;;;;7.45;5.38;;;7.00;99.90;;;;;;5070792;27;36486;-57
2022/03/28 06:22:32;;;;;;;9.00;5.97;;;6.90;99.90;;;;;;5071390;28;36063;-57
2022/03/28 06:25:00;;;;;;;10.48;5.85;;;6.90;99.90;;;;;;5071024;27;37008;-57
2022/03/28 06:27:27;;;;;;;9.50;5.75;;;6.90;99.90;;;;;;5069773;27;38756;-57
2022/03/28 06:29:54;;;;;;;7.65;4.90;;;6.90;99.90;;;;;;5069331;27;36506;-57
2022/03/28 06:32:23;;;;;;;11.48;5.82;;;6.90;99.90;;;;;;5069120;27;37233;-57
2022/03/28 06:34:52;;;;;;;9.00;5.65;;;7.00;99.90;;;;;;5067042;27;36720;-57
2022/03/28 06:37:23;;;;;;;13.30;5.75;;;7.00;99.90;;;;;;5069089;28;37227;-57
2022/03/28 06:39:50;;;;;;;11.13;5.85;;;7.10;99.90;;;;;;5070041;27;37816;-57
2022/03/28 06:42:17;;;;;;;7.95;5.13;;;7.10;99.90;;;;;;5069779;27;37410;-57
2022/03/28 06:44:45;;;;;;;7.38;5.15;;;7.10;99.90;;;;;;5069301;27;35479;-57
2022/03/28 06:47:12;;;;;;;8.48;5.60;;;7.10;99.90;;;;;;5070036;28;37510;-56
2022/03/28 06:49:41;;;;;;;9.85;6.20;;;7.10;99.90;;;;;;5070489;27;38533;-57
2022/03/28 06:52:09;;;;;;;7.85;5.78;;;7.20;99.90;;;;;;5070449;28;37272;-58
2022/03/28 06:54:36;;;;;;;8.93;6.03;;;7.20;99.90;;;;;;5069880;27;35373;-57
2022/03/28 06:57:04;;;;;;;8.80;6.60;;;7.20;99.90;;;;;;5070897;27;37501;-57
2022/03/28 06:59:31;;;;;;;9.18;6.45;;;7.20;99.90;;;;;;5068452;28;37779;-57
2022/03/28 07:01:59;;;;;;;9.75;6.85;;;7.30;99.90;;;;;;5071030;27;37836;-57
2022/03/28 07:04:26;;;;;;;8.35;6.60;;;7.30;99.90;;;;;;5069631;27;38889;-58
2022/03/28 07:06:55;;;;;;;9.60;6.53;;;7.30;99.90;;;;;;5069949;27;37631;-57
2022/03/28 07:09:22;;;;;;;9.13;6.47;;;7.30;99.90;;;;;;5070697;27;37791;-58
2022/03/28 07:11:49;;;;;;;9.73;6.70;;;7.40;99.90;;;;;;5069764;27;35998;-57
2022/03/28 07:14:17;;;;;;;9.70;6.68;;;7.40;99.90;;;;;;5069560;28;36288;-57
2022/03/28 07:16:44;;;;;;;9.80;6.32;;;7.50;99.90;;;;;;5070499;27;39522;-57
2022/03/28 07:19:13;;;;;;;15.98;6.38;;;7.50;99.90;;;;;;5069751;28;36395;-57
2022/03/28 07:21:40;;;;;;;9.90;6.70;;;7.50;99.90;;;;;;5070141;27;36195;-57
2022/03/28 07:24:09;;;;;;;13.85;6.72;;;7.50;99.90;;;;;;5069455;27;36407;-57
2022/03/28 07:26:36;;;;;;;9.80;5.68;;;7.50;99.90;;;;;;5070022;27;37719;-57
2022/03/28 07:29:04;;;;;;;9.98;5.93;;;7.60;99.90;;;;;;5068745;27;37745;-58
2022/03/28 07:31:31;;;;;;;11.38;6.22;;;7.60;99.90;;;;;;5070620;28;36400;-57
2022/03/28 07:36:40;;;;;;;7.97;5.85;;;7.70;99.90;;;;;;5069854;28;38022;-58
2022/03/28 07:39:09;;;;;;;7.90;6.03;;;7.70;99.90;;;;;;5069990;27;38496;-57
2022/03/28 07:41:36;;;;;;;7.70;5.68;;;7.70;99.90;;;;;;5070062;27;37613;-57
2022/03/28 07:44:05;;;;;;;7.85;6.00;;;7.80;99.90;;;;;;5069982;28;36806;-58
2022/03/28 07:46:33;;;;;;;9.30;6.18;;;7.80;99.90;;;;;;5070909;27;38535;-57
2022/03/28 07:49:00;;;;;;;7.75;5.50;;;7.80;99.90;;;;;;5073220;27;36656;-57
2022/03/28 07:51:27;;;;;;;8.35;6.07;;;7.90;99.90;;;;;;5074173;27;36940;-57
2022/03/28 07:53:55;;;;;;;11.48;6.68;;;7.90;99.90;;;;;;5073849;28;36887;-57
2022/03/28 07:56:24;;;;;;;11.45;6.22;;;7.90;99.90;;;;;;5073253;27;36194;-57
2022/03/28 07:58:51;;;;;;;11.85;6.10;;;7.90;99.90;;;;;;5072503;27;36547;-57
2022/03/28 08:01:19;;;;;;;8.32;5.50;;;7.90;99.90;;;;;;5073181;27;38999;-58
2022/03/28 08:03:46;;;;;;;11.73;6.50;;;8.00;99.90;;;;;;5071950;27;37445;-57
2022/03/28 08:06:13;;;;;;;9.50;6.82;;;8.30;99.90;;;;;;5073609;27;37724;-57
2022/03/28 08:08:41;;;;;;;9.88;5.57;;;8.00;99.90;;;;;;5073373;27;38132;-58
2022/03/28 08:11:09;;;;;;;10.60;7.50;;;8.00;99.90;;;;;;5073064;28;38503;-58
2022/03/28 08:13:38;;;;;;;12.02;7.20;;;8.10;99.90;;;;;;5073271;28;36395;-57
2022/03/28 08:16:05;;;;;;;10.05;7.20;;;8.10;99.90;;;;;;5073636;28;38981;-57
2022/03/28 08:18:36;;;;;;;10.32;7.57;;;8.10;99.90;;;;;;5072536;27;36310;-58
2022/03/28 08:21:03;;;;;;;10.25;7.25;;;8.20;99.90;;;;;;5073305;27;38835;-57
2022/03/28 08:23:30;;;;;;;11.52;7.35;;;8.20;99.90;;;;;;5072912;27;38379;-58
2022/03/28 08:25:59;;;;;;;8.95;6.28;;;8.20;99.90;;;;;;5074253;28;36229;-57
2022/03/28 08:28:27;;;;;;;11.02;7.40;;;8.30;99.90;;;;;;5073611;28;37793;-57
2022/03/28 08:30:56;;;;;;;14.98;7.53;;;8.30;99.90;;;;;;5072641;28;38120;-58
2022/03/28 08:33:23;;;;;;;10.80;7.20;;;8.30;99.90;;;;;;5073778;28;36577;-58
2022/03/28 08:35:50;;;;;;;11.50;7.97;;;8.30;99.90;;;;;;5073228;27;37599;-58
2022/03/28 08:38:18;;;;;;;16.90;8.65;;;8.30;99.90;;;;;;5072784;27;38223;-58
2022/03/28 08:40:45;;;;;;;12.43;8.07;;;8.30;99.90;;;;;;5074526;27;37875;-58
2022/03/28 08:43:18;;;;;;;11.60;8.20;;;8.40;99.90;;;;;;5072423;28;36414;-58
2022/03/28 08:45:46;;;;;;;11.00;7.60;;;8.40;99.90;;;;;;5073282;28;37510;-58
2022/03/28 08:48:15;;;;;;;12.75;7.97;;;8.40;99.90;;;;;;5072655;27;37538;-58
2022/03/28 08:50:44;;;;;;;10.95;7.43;;;8.40;99.90;;;;;;5073317;27;36109;-57
2022/03/28 08:53:13;;;;;;;15.52;7.93;;;8.40;99.90;;;;;;5073182;27;35359;-57
2022/03/28 08:55:41;;;;;;;9.80;6.90;;;8.40;99.90;;;;;;5072158;28;38465;-57
2022/03/28 08:58:09;;;;;;;16.30;12.07;;;8.50;99.90;;;;;;5071680;28;39063;-57
2022/03/28 09:00:36;;;;;;;14.07;10.18;;;8.50;99.90;;;;;;5072443;27;36971;-58
2022/03/28 09:03:04;;;;;;;12.55;7.97;;;8.60;99.90;;;;;;5072730;27;36671;-58
2022/03/28 09:05:34;;;;;;;11.82;7.32;;;8.60;99.90;;;;;;5072587;27;36264;-58
2022/03/28 09:08:02;;;;;;;10.60;7.78;;;8.60;99.90;;;;;;5072681;28;37128;-58
2022/03/28 09:10:32;;;;;;;11.35;7.80;;;8.70;99.90;;;;;;5072938;27;38229;-58
2022/03/28 09:13:01;;;;;;;13.20;8.35;;;8.70;99.90;;;;;;5072451;27;35113;-58
2022/03/28 09:15:43;;;;;;;12.68;9.00;;;8.80;99.90;;;;;;5073497;28;37412;-58
2022/03/28 09:18:30;;;;;;;12.57;8.73;;;8.80;99.90;;;;;;5072585;27;37984;-58
2022/03/28 09:21:00;;;;;;;11.80;8.45;;;8.80;99.90;;;;;;5072275;27;38557;-57
2022/03/28 09:23:39;;;;;;;12.70;7.85;;;8.80;99.90;;;;;;5072042;28;35351;-57
2022/03/28 09:26:12;;;;;;;12.63;8.02;;;8.90;99.90;;;;;;5071853;27;37707;-58
2022/03/28 09:28:47;;;;;;;12.73;8.68;;;8.90;99.90;;;;;;5072415;27;36605;-57
2022/03/28 09:31:24;;;;;;;14.10;8.90;;;9.00;99.90;;;;;;5071378;28;37506;-57
2022/03/28 09:33:59;;;;;;;12.95;8.70;;;9.00;99.90;;;;;;5068412;27;35230;-57
2022/03/28 09:36:46;;;;;;;12.63;8.52;;;9.00;99.90;;;;;;5068872;27;38613;-57
2022/03/28 09:39:17;;;;;;;14.60;9.63;;;9.10;99.90;;;;;;5070402;28;39967;-57
2022/03/28 09:41:47;;;;;;;13.95;8.88;;;9.10;99.90;;;;;;5072245;27;37913;-58
2022/03/28 09:44:14;;;;;;;12.20;9.30;;;9.20;99.90;;;;;;5071426;27;37655;-57
2022/03/28 09:46:42;;;;;;;15.25;10.02;;;9.20;99.90;;;;;;5072686;27;37410;-58
2022/03/28 09:49:09;;;;;;;17.23;10.75;;;9.20;99.90;;;;;;5070937;28;38430;-58
2022/03/28 09:51:37;;;;;;;13.25;9.80;;;9.40;99.90;;;;;;5071712;27;37323;-57
2022/03/28 09:54:20;;;;;;;15.75;10.65;;;9.40;99.90;;;;;;5071987;28;36774;-58
2022/03/28 09:57:09;;;;;;;16.30;10.73;;;9.40;99.20;;;;;;5072660;27;38431;-58
2022/03/28 09:59:40;;;;;;;16.33;11.20;;;9.50;99.40;;;;;;5072399;28;36310;-58
2022/03/28 10:02:19;;;;;;;13.55;8.98;;;9.50;99.10;;;;;;5071775;27;37075;-58
2022/03/28 10:04:49;;;;;;;18.45;10.20;;;9.50;99.30;;;;;;5072994;27;36782;-58
2022/03/28 10:07:17;;;;;;;11.57;8.98;;;9.60;99.50;;;;;;5071943;28;37049;-58
2022/03/28 10:09:47;;;;;;;13.50;9.75;;;9.60;99.30;;;;;;5071693;27;37755;-57
2022/03/28 10:12:14;;;;;;;22.08;8.55;;;9.60;99.10;;;;;;5071431;28;37696;-57
2022/03/28 10:14:42;;;;;;;11.77;8.88;;;9.70;98.90;;;;;;5071792;27;36498;-58
2022/03/28 10:17:09;;;;;;;14.80;10.82;;;9.70;98.70;;;;;;5071543;28;37366;-57
2022/03/28 10:19:38;;;;;;;14.45;8.95;;;9.80;98.80;;;;;;5072576;28;20115;-58
2022/03/28 10:22:11;;;;;;;13.23;8.95;;;9.80;98.60;;;;;;5071795;27;37363;-58
2022/03/28 10:24:41;;;;;;;13.77;9.52;;;9.90;98.50;;;;;;5070973;27;36624;-58
2022/03/28 10:27:12;;;;;;;15.15;9.02;;;9.90;98.20;;;;;;5070436;28;37537;-58
2022/03/28 10:29:42;;;;;;;12.82;9.65;;;10.00;98.30;;;;;;5070436;27;36403;-58
2022/03/28 10:32:13;;;;;;;13.65;9.77;;;10.10;98.00;;;;;;5071236;28;38751;-58
2022/03/28 10:34:46;;;;;;;16.13;9.85;;;10.10;97.80;;;;;;5070972;27;37135;-58
2022/03/28 10:37:30;;;;;;;14.00;9.90;;;10.10;98.10;;;;;;5069957;27;38723;-58
2022/03/28 10:40:26;;;;;;;16.48;9.40;;;10.20;97.90;;;;;;5068222;27;37964;-58
2022/03/28 10:43:03;;;;;;;14.15;10.00;;;10.30;97.50;;;;;;5071783;27;35958;-58
2022/03/28 10:45:36;;;;;;;13.35;9.52;;;10.40;97.60;;;;;;5070371;28;36651;-58
2022/03/28 10:48:05;;;;;;;14.15;10.25;;;10.40;97.40;;;;;;5070978;28;37684;-58
2022/03/28 10:50:34;;;;;;;16.33;10.45;;;10.40;97.20;;;;;;5069933;28;39201;-58
2022/03/28 10:53:14;;;;;;;12.85;8.85;;;10.60;97.20;;;;;;5070672;27;37615;-58
2022/03/28 10:55:47;;;;;;;12.48;9.30;;;10.90;96.50;;;;;;5070524;28;38737;-58
2022/03/28 10:58:20;;;;;;;12.18;10.02;;;11.00;96.40;;;;;;5070429;27;37414;-57
2022/03/28 11:01:33;;;;;;;13.70;10.05;;;11.10;96.00;;;;;;5069091;27;39247;-58
2022/03/28 11:04:04;;;;;;;14.82;10.10;;;11.00;95.00;;;;;;5067996;28;36827;-58
2022/03/28 11:07:03;;;;;;;13.73;10.77;;;11.00;95.80;;;;;;5068830;28;36591;-58
2022/03/28 11:09:50;;;;;;;13.43;9.38;;;11.10;95.10;;;;;;5070085;27;39497;-58
2022/03/28 11:12:19;;;;;;;13.40;9.82;;;11.10;94.70;;;;;;5069959;28;36557;-59
2022/03/28 11:14:57;;;;;;;13.75;10.52;;;11.10;95.30;;;;;;5070240;28;38300;-57
2022/03/28 11:17:26;;;;;;;13.18;9.80;;;11.20;95.40;;;;;;5069945;27;37245;-58
2022/03/28 11:19:56;;;;;;;14.90;10.20;;;11.40;95.60;;;;;;5070174;27;37511;-58
2022/03/28 11:22:45;;;;;;;15.75;11.07;;;11.50;94.80;;;;;;5069336;27;36411;-57
2022/03/28 11:25:39;;;;;;;13.52;9.90;;;11.60;93.90;;;;;;5068912;28;37500;-58
2022/03/28 11:28:08;;;;;;;;;;;11.60;93.70;;;;;;5069969;28;37656;-58
2022/03/28 11:30:52;;;;;;;15.15;10.45;;;11.50;92.60;;;;;;5069193;27;37914;-58
2022/03/28 11:33:21;;;;;;;13.68;11.30;;;11.50;93.90;;;;;;5068499;27;38637;-58
2022/03/28 11:35:55;;;;;;;13.60;10.80;;;11.50;94.50;;;;;;5070362;27;37005;-58
2022/03/28 11:38:25;;;;;;;13.45;10.80;;;11.60;94.80;;;;;;5070997;27;35907;-57
2022/03/28 11:40:53;;;;;;;16.75;10.65;;;11.60;94.00;;;;;;5068726;28;40450;-58
2022/03/28 11:43:28;;;;;;;14.35;10.93;;;11.70;94.00;;;;;;5069421;28;40210;-57
2022/03/28 11:45:58;;;;;;;14.93;11.02;;;11.80;93.30;;;;;;5069094;28;37607;-58
2022/03/28 11:48:26;;;;;;;14.73;10.48;;;11.80;93.60;;;;;;5069899;28;36092;-58
2022/03/28 11:50:55;;;;;;;13.98;10.90;;;11.80;93.50;;;;;;5068999;27;37936;-58
2022/03/28 11:53:22;;;;;;;12.57;10.30;;;11.80;93.50;;;;;;5069916;27;38491;-58
2022/03/28 11:55:52;;;;;;;14.15;11.05;;;11.70;93.10;;;;;;5069266;28;36404;-58
2022/03/28 11:58:29;;;;;;;16.90;10.77;;;11.80;93.50;;;;;;5070188;27;36418;-58
2022/03/28 12:01:07;;;;;;;13.98;10.63;;;11.80;93.80;;;;;;5068799;27;37724;-57
2022/03/28 12:03:34;;;;;;;13.30;10.82;;;11.80;93.30;;;;;;5066980;27;36669;-58
2022/03/28 12:06:01;;;;;;;15.48;11.50;;;11.80;93.80;;;;;;5067127;27;36280;-58
2022/03/28 12:08:30;;;;;;;14.48;11.77;;;11.80;94.00;;;;;;5067359;28;38694;-58
2022/03/28 12:10:58;;;;;;;14.98;11.77;;;11.80;94.00;;;;;;5067878;27;36114;-57
2022/03/28 12:13:26;;;;;;;16.13;11.93;;;11.80;94.00;;;;;;5066282;27;38361;-58
2022/03/28 12:15:55;;;;;;;15.63;11.77;;;11.80;93.80;;;;;;5066959;27;37484;-58
2022/03/28 12:18:30;;;;;;;16.88;11.35;;;11.90;94.00;;;;;;5065899;28;37606;-57
2022/03/28 12:20:58;;;;;;;12.48;11.00;;;12.00;94.20;;;;;;5067888;27;38564;-58
2022/03/28 12:23:27;;;;;;;14.75;10.70;;;12.00;93.90;;;;;;5067755;28;42288;-58
2022/03/28 12:25:56;;;;;;;14.18;10.68;;;12.10;93.90;;;;;;5067483;27;37079;-58
2022/03/28 12:28:29;;;;;;;14.90;10.80;;;12.10;93.70;;;;;;5069006;27;36895;-58
2022/03/28 12:30:58;;;;;;;14.88;11.32;;;12.10;93.70;;;;;;5068440;27;39280;-58
2022/03/28 12:33:29;;;;;;;13.63;11.15;;;12.00;93.70;;;;;;5067676;28;37072;-57
2022/03/28 12:36:00;;;;;;;15.02;10.85;;;12.10;93.70;;;;;;5071863;28;37361;-58
2022/03/28 12:38:29;;;;;;;14.95;11.30;;;12.10;93.70;;;;;;5072741;28;36661;-58
2022/03/28 12:40:58;;;;;;;15.63;10.45;;;12.00;93.80;;;;;;5070289;27;37405;-58
2022/03/28 12:43:27;;;;;;;15.82;11.73;;;12.00;93.90;;;;;;5070287;28;38813;-58
2022/03/28 12:45:55;;;;;;;13.45;10.63;;;12.00;93.90;;;;;;5072176;28;38248;-58
2022/03/28 12:48:23;;;;;;;15.77;10.35;;;11.90;93.90;;;;;;5071530;27;39063;-58
2022/03/28 12:51:00;;;;;;;16.77;10.68;;;12.00;94.00;;;;;;5070821;27;37375;-58
2022/03/28 12:53:29;;;;;;;16.45;10.23;;;12.10;94.00;;;;;;5071839;27;38146;-58
2022/03/28 12:56:14;;;;;;;12.88;9.55;;;12.10;93.80;;;;;;5073433;28;39394;-58
2022/03/28 12:58:44;;;;;;;13.77;10.75;;;12.10;93.40;;;;;;5072592;28;38216;-58
2022/03/28 13:01:12;;;;;;;14.73;10.13;;;12.00;93.50;;;;;;5068451;28;37376;-58
2022/03/28 13:03:40;;;;;;;13.85;10.43;;;12.10;93.70;;;;;;5071530;28;38625;-58